Huvudsida
METAR-TAF:

METAR-TAF

Flygplatser :

Staunings flygplats

Ringkøbing-Skjern, Danmark

latitud: 56-00N, longitud: 008-21E, höjd: 5 m

Aktuellt väderrapport

Denna rapport gjordes för 16 minuter sedan, klockan 07:50 UTC
Vind 22 kt från nordväst i byarna ända upp till 34 kt, varierande mellan väst och nord/nordväst
Temperatur 13°C
Fuktighet 94%
Tryck 1008 hPa
Sikt: 4000 m
Brutna moln på en höjd av 1000 ft
fuktdis

METAR: EKVJ 230750Z 31022G34KT 260V340 4000 BR BKN010 13/12 Q1008

Tid: 10:06 (08:06 UTC)


TAF: saknas

Aktuella väderrapporter och prognoser från 4000 flygplatser (METAR- och TAF-rapporter).

De tillgängliga stationerna syns som gula och röda prickar på kartan.

För musen över prickarna för att se namnen på stationerna.

Klicka sedan för att få väderrapporter och prognoser.

För att ändra kartan: Klicka på de gröna knapparna med ett svart kors på för att zooma in; den gröna knappen med ett streck på för att zooma ut; eller på de gröna pilarna för angränsande kartor.


METAR-TAF: